• Join FlightAware (Why Join?)
  • Login
  • US Flag 
02:51PM EDT


 

Airport Tracker/Info


-or-


 

Live Flight TrackerFlight Track Log ✈ FDX1603 ✈ 03-Jul-2013 ✈ KATL - KIND

Flight Track Log - Related Links

Times and Time Zones

All times are in EDT time to prevent confusion due to time zone crossing. See the FDX1603 flight status page for this flight to view local times or setup timezone preferences in your user account.

Time Position Orientation Groundspeed Altitude Reporting Facility
EDT Latitude Longitude Course Direction KTS MPH feet Rate Location/Type
11:16PM 33.6550 -84.4170 North 12 14  Level FlightAware
11:17PM 33.6540 -84.4170 180° South 10 12  Level FlightAware
11:20PM 33.7576 -84.1667 North  Level FlightAware Approximate
11:20PM 33.6530 -84.4180 320° Northwest 26 30  Level FlightAware
11:21PM 33.8587 -84.1920 320° Northwest  Level FlightAware Approximate
11:21PM 33.6520 -84.4190 220° Southwest 21 24  Level FlightAware
11:22PM 33.6510 -84.4190 180° South 21 24 60 Level FlightAware
11:22PM 33.6510 -84.4210 270° West 27 31 60 Level FlightAware
11:23PM 33.6510 -84.4220 270° West 60 Level FlightAware
11:24PM 33.6500 -84.4220 180° South 24 28 60 Level FlightAware
11:25PM 33.6480 -84.4230 203° Southwest 27 31 60 Level FlightAware
11:25PM 33.6480 -84.4240 270° West 32 37 60 Level FlightAware
11:26PM 33.6480 -84.4270 270° West 34 39 60 Level FlightAware
11:26PM 33.6480 -84.4280 270° West 30 35 60 Level FlightAware
11:27PM 33.6480 -84.4310 270° West 32 37 60 Level FlightAware
11:27PM 33.6480 -84.4330 270° West 34 39 120 Level FlightAware
11:27PM 33.6480 -84.4340 270° West 34 39 120 Level FlightAware
11:28PM 33.6480 -84.4350 270° West 26 30 120 Level FlightAware
11:28PM 33.6480 -84.4370 270° West 27 31 120 Level FlightAware
11:29PM 33.6480 -84.4400 270° West 27 31 120 Level FlightAware
11:30PM 33.6480 -84.4380 90° East 16 18 180 Level FlightAware
11:31PM 33.6470 -84.4380 180° South 12 14 240 Level FlightAware
11:32PM 33.6470 -84.4370 90° East 30 35 420 Level FlightAware
11:32PM 33.6470 -84.4230 90° East 151 174 700 2,100 Climbing FlightAware
11:33PM 33.6470 -84.3970 90° East 161 185 2,100 1,800 Climbing FlightAware
11:33PM 33.6480 -84.3630 88° East 240 276 2,500 1,980 Climbing FlightAware
11:34PM 33.6550 -84.3280 76° East 257 296 3,900 2,880 Climbing FlightAware
11:34PM 33.6640 -84.2860 76° East 278 320 5,100 3,000 Climbing FlightAware
11:34PM 33.6710 -84.2680 65° Northeast 287 330 5,900 3,420 Climbing FlightAware
11:35PM 33.6860 -84.2510 43° Northeast 302 348 6,700 3,180 Climbing FlightAware
11:35PM 33.7010 -84.2420 27° Northeast 310 357 7,400 3,480 Climbing FlightAware
11:35PM 33.7190 -84.2400 North 314 361 8,100 3,180 Climbing FlightAware
11:35PM 33.7490 -84.2410 358° North 320 368 9,100 1,860 Climbing FlightAware
11:36PM 33.7850 -84.2430 357° North 319 367 9,500 720 Climbing FlightAware
11:36PM 33.8230 -84.2450 357° North 319 367 9,700 720 Climbing FlightAware
11:37PM 33.8790 -84.2700 340° North 358 412 10,300 1,860 Climbing FlightAware
11:38PM 33.9410 -84.3180 327° Northwest 377 434 12,300 2,700 Climbing FlightAware
11:38PM 34.0040 -84.3680 327° Northwest 389 448 14,200 2,580 Climbing FlightAware
11:39PM 34.0620 -84.4150 326° Northwest 401 461 15,800 2,400 Climbing FlightAware
11:40PM 34.1370 -84.4740 327° Northwest 412 474 17,700 2,400 Climbing FlightAware
11:40PM 34.1640 -84.4963 326° Northwest 415 478 18,400 2,160 Climbing FlightAware ADS-B
11:41PM 34.2126 -84.5356 326° Northwest 424 488 19,400 1,920 Climbing FlightAware ADS-B
11:41PM 34.2485 -84.5649 326° Northwest 433 498 20,100 1,860 Climbing FlightAware ADS-B
11:41PM 34.2774 -84.5833 332° Northwest 441 507 20,600 2,040 Climbing FlightAware ADS-B
11:41PM 34.2966 -84.5928 338° Northwest 445 512 21,000 2,040 Climbing FlightAware ADS-B
11:42PM 34.3214 -84.6025 342° North 449 517 21,400 1,860 Climbing FlightAware ADS-B
11:42PM 34.3851 -84.6184 348° North 454 522 22,400 1,860 Climbing FlightAware ADS-B
11:43PM 34.4486 -84.6341 348° North 462 532 23,300 1,680 Climbing FlightAware ADS-B
11:43PM 34.5123 -84.6499 348° North 470 541 24,100 1,440 Climbing FlightAware ADS-B
11:44PM 34.5772 -84.6660 348° North 479 551 24,800 1,440 Climbing FlightAware ADS-B
11:44PM 34.6436 -84.6826 348° North 484 557 25,600 1,680 Climbing FlightAware ADS-B
11:45PM 34.7106 -84.6988 349° North 487 560 26,500 1,560 Climbing FlightAware ADS-B
11:45PM 34.7778 -84.7153 349° North 492 566 27,200 1,320 Climbing FlightAware ADS-B
11:46PM 34.8454 -84.7320 349° North 497 572 27,900 1,380 Climbing FlightAware ADS-B
11:46PM 34.9144 -84.7495 348° North 500 575 28,600 1,200 Climbing FlightAware ADS-B
11:47PM 34.9904 -84.7683 349° North 508 585 29,200 1,080 Climbing FlightAware ADS-B
11:47PM 35.0624 -84.7862 348° North 512 589 29,800 1,320 Climbing FlightAware ADS-B
11:48PM 35.1327 -84.8036 349° North 512 589 30,600 1,380 Climbing FlightAware ADS-B
11:48PM 35.2078 -84.8228 348° North 513 590 31,300 1,320 Climbing FlightAware ADS-B
11:49PM 35.2782 -84.8403 349° North 513 590 32,000 960 Climbing FlightAware ADS-B
11:49PM 35.3490 -84.8581 348° North 523 602 32,300 600 Climbing FlightAware ADS-B
11:50PM 35.4212 -84.8764 348° North 533 613 32,600 840 Climbing FlightAware ADS-B
11:50PM 35.4954 -84.8953 348° North 535 616 33,200 1,140 Climbing FlightAware ADS-B
11:51PM 35.5693 -84.9137 349° North 537 618 33,800 1,260 Climbing FlightAware ADS-B
11:51PM 35.6425 -84.9321 348° North 536 617 34,500 1,260 Climbing FlightAware ADS-B
11:52PM 35.7165 -84.9506 349° North 536 617 35,100 1,140 Climbing FlightAware ADS-B
11:52PM 35.7897 -84.9697 348° North 534 615 35,700 840 Climbing FlightAware ADS-B
11:53PM 35.8639 -84.9884 348° North 533 613 36,000 240 Climbing FlightAware ADS-B
11:53PM 35.9371 -85.0075 348° North 531 611 36,000  Level FlightAware ADS-B
11:54PM 36.0110 -85.0259 349° North 532 612 36,000  Level FlightAware ADS-B
11:54PM 36.0837 -85.0445 348° North 533 613 36,000  Level FlightAware ADS-B
11:55PM 36.1571 -85.0639 348° North 535 616 36,000  Level FlightAware ADS-B
11:55PM 36.2342 -85.0832 349° North 537 618 36,000  Level FlightAware ADS-B
11:56PM 36.3186 -85.1051 348° North 537 618 36,000  Level FlightAware ADS-B
11:56PM 36.3921 -85.1239 348° North 536 617 36,000  Level FlightAware ADS-B
11:57PM 36.5323 -85.1604 348° North 534 615 36,000 -180 Level FlightAware ADS-B
11:58PM 36.6063 -85.1799 348° North 535 616 35,800 -720 Descending FlightAware ADS-B
11:58PM 36.6797 -85.1987 348° North 535 616 35,300 -960 Descending FlightAware ADS-B
11:59PM 36.7633 -85.2204 348° North 538 619 34,800 -900 Descending FlightAware ADS-B
11:59PM 36.8429 -85.2416 348° North 538 619 34,300 -1,080 Descending FlightAware ADS-B
12:00AM 36.9203 -85.2620 348° North 541 623 33,700 -1,080 Descending FlightAware ADS-B
12:01AM 37.0004 -85.2827 348° North 542 624 33,200 -960 Descending FlightAware ADS-B
12:01AM 37.0457 -85.2949 348° North 542 624 32,900 -1,020 Descending FlightAware ADS-B
12:01AM 37.1212 -85.3110 350° North 545 627 32,400 -900 Descending FlightAware ADS-B
12:02AM 37.2027 -85.3281 351° North 545 627 32,000 -420 Descending FlightAware ADS-B
12:02AM 37.2774 -85.3440 350° North 541 623 32,000  Level FlightAware ADS-B
12:03AM 37.3519 -85.3600 350° North 540 621 32,000  Level FlightAware ADS-B
12:03AM 37.4262 -85.3762 350° North 542 624 32,000  Level FlightAware ADS-B
12:04AM 37.5056 -85.3937 350° North 544 626 32,000  Level FlightAware ADS-B
12:04AM 37.5803 -85.4100 350° North 547 629 32,000  Level FlightAware ADS-B
12:05AM 37.6660 -85.4290 350° North 550 633 32,000  Level FlightAware
12:06AM 37.7780 -85.4540 350° North 551 634 32,000  Level FlightAware
12:06AM 37.8800 -85.4770 350° North 547 629 32,000  Level FlightAware
12:07AM 37.9660 -85.4950 351° North 548 631 32,000 -300 Level FlightAware
12:08AM 38.0640 -85.5170 350° North 531 611 31,700 -1,200 Descending FlightAware
12:08AM 38.1700 -85.5400 350° North 511 588 30,400 -1,860 Descending FlightAware
12:09AM 38.2470 -85.5580 350° North 504 580 29,300 -2,100 Descending FlightAware
12:10AM 38.3490 -85.5810 350° North 492 566 27,700 -2,100 Descending FlightAware
12:10AM 38.4410 -85.6010 350° North 474 545 26,300 -2,040 Descending FlightAware
12:11AM 38.5310 -85.6220 350° North 465 535 24,900 -2,100 Descending FlightAware
12:12AM 38.6140 -85.6410 350° North 453 521 23,500 -2,340 Descending FlightAware
12:13AM 38.7060 -85.6570 352° North 447 514 21,700 -2,520 Descending FlightAware
12:13AM 38.7880 -85.6720 352° North 438 504 20,000 -2,520 Descending FlightAware
12:14AM 38.8670 -85.6860 352° North 432 497 18,300 -2,520 Descending FlightAware
12:15AM 38.9450 -85.6990 353° North 420 483 16,700 -2,400 Descending FlightAware
12:15AM 38.9660 -85.7030 352° North 416 479 16,300 -1,920 Descending FlightAware
12:16AM 39.1360 -85.7330 352° North 388 447 13,500 -1,380 Descending FlightAware
12:17AM 39.2030 -85.7450 352° North 374 430 13,300 -180 Descending FlightAware
12:18AM 39.2730 -85.7580 352° North 374 430 13,300  Level FlightAware
12:18AM 39.3080 -85.7640 352° North 374 430 13,300 -2,100 Level FlightAware
12:20AM 39.4180 -85.8910 318° Northwest 296 341 9,400 -1,860 Descending FlightAware
12:20AM 39.4600 -85.9410 317° Northwest 293 337 9,200 -660 Descending FlightAware
12:21AM 39.4900 -85.9760 318° Northwest 8,800 -900 Descending FlightAware
12:21AM 39.5150 -86.0050 318° Northwest 253 291 8,300 -1,080 Descending FlightAware
12:22AM 39.5590 -86.0590 317° Northwest 244 281 7,500 -1,140 Descending FlightAware
12:22AM 39.5700 -86.0730 316° Northwest 241 277 7,200 -900 Descending FlightAware
12:23AM 39.5930 -86.1000 318° Northwest 238 274 6,900 -600 Descending FlightAware
12:23AM 39.6070 -86.1170 317° Northwest 238 274 6,800 -180 Descending FlightAware
12:24AM 39.6290 -86.1450 316° Northwest 239 275 6,800  Level FlightAware
12:24AM 39.6510 -86.1720 317° Northwest 236 272 6,800  Level FlightAware
12:24AM 39.6560 -86.1890 291° West 222 255 6,800 -720 Level FlightAware
12:25AM 39.6440 -86.2210 244° Southwest 207 238 6,300 -1,080 Descending FlightAware
12:25AM 39.6260 -86.2450 226° Southwest 205 236 5,800 -1,200 Descending FlightAware
12:26AM 39.6100 -86.2690 229° Southwest 206 237 5,300 -1,140 Descending FlightAware
12:26AM 39.5920 -86.2960 229° Southwest 208 239 4,800 -540 Descending FlightAware
12:27AM 39.5750 -86.3210 229° Southwest 209 241 4,800  Level FlightAware
12:27AM 39.5580 -86.3450 227° Southwest 208 239 4,800  Level FlightAware
12:27AM 39.5420 -86.3700 230° Southwest 209 241 4,800  Level FlightAware
12:28AM 39.5240 -86.3970 229° Southwest 209 241 4,800  Level FlightAware
12:28AM 39.5180 -86.4140 245° Southwest 215 247 4,800  Level FlightAware
12:28AM 39.5180 -86.4270 270° West 226 260 4,800 -780 Level FlightAware
12:29AM 39.5250 -86.4440 298° West 235 270 4,500 -1,440 Descending FlightAware
12:29AM 39.5400 -86.4570 326° Northwest 243 280 4,100 -1,500 Descending FlightAware
12:29AM 39.5490 -86.4590 350° North 242 278 3,900 -360 Descending FlightAware
12:29AM 39.5750 -86.4600 358° North 242 278 3,900 -360 Level FlightAware
12:30AM 39.6000 -86.4310 42° Northeast 207 238 3,600 -840 Descending FlightAware
12:30AM 39.6190 -86.4070 44° Northeast 199 229 3,100 -1,080 Descending FlightAware
12:31AM 39.6360 -86.3860 44° Northeast 176 203 2,600 -1,080 Descending FlightAware
12:31AM 39.6430 -86.3780 41° Northeast 159 183 2,400 -1,200 Descending FlightAware
12:32AM 39.6580 -86.3590 44° Northeast 150 173 1,800 -1,140 Descending FlightAware
12:32AM 39.6650 -86.3490 48° Northeast 144 166 1,600 -780 Descending FlightAware
12:32AM 39.6760 -86.3350 44° Northeast 141 162 1,300 -840 Descending FlightAware
12:33AM 39.6860 -86.3220 45° Northeast 142 163 1,000 -840 Descending FlightAware
12:33AM 39.6970 -86.3080 44° Northeast 140 161 700 -360 Descending FlightAware
12:33AM 39.7080 -86.2950 42° Northeast 140 161 700  Level FlightAware
12:34AM 39.7180 -86.2810 47° Northeast 78 90 -1,080 Descending FlightAware
12:35AM 39.7190 -86.2790 57° Northeast 33 38  Level FlightAware
12:35AM 39.7180 -86.2750 108° East 25 29  Level FlightAware
12:36AM 39.7200 -86.2760 339° North 15 17  Level FlightAware